createdAt,value
2022-09-05T00:00:22.351Z,4.20
2022-09-05T00:01:41.303Z,6.30
2022-09-05T00:03:17.376Z,5.33
2022-09-05T00:04:37.946Z,5.77
2022-09-05T00:05:48.406Z,5.23
2022-09-05T00:07:10.687Z,7.40
2022-09-05T00:08:41.181Z,5.40
2022-09-05T00:09:58.305Z,6.30
2022-09-05T00:11:42.166Z,4.00
2022-09-05T00:12:39.363Z,4.47
2022-09-05T00:13:46.738Z,5.90
2022-09-05T00:15:14.726Z,6.60
2022-09-05T00:16:34.241Z,5.20
2022-09-05T00:20:55.126Z,5.23
2022-09-05T00:24:25.044Z,4.87
2022-09-05T00:24:25.995Z,4.07
2022-09-05T00:24:27.137Z,4.23
2022-09-05T00:25:07.263Z,4.47
2022-09-05T00:26:42.292Z,5.30
2022-09-05T00:28:26.275Z,4.10
2022-09-05T00:31:05.701Z,5.60
2022-09-05T00:31:54.176Z,4.60
2022-09-05T00:32:59.120Z,4.10
2022-09-05T00:34:48.448Z,6.27
2022-09-05T00:36:09.399Z,3.97
2022-09-05T00:37:16.437Z,4.10
2022-09-05T00:38:22.211Z,6.47
2022-09-05T00:39:36.412Z,3.60
2022-09-05T00:40:40.581Z,4.80
2022-09-05T00:41:42.743Z,7.10
2022-09-05T00:42:47.494Z,3.97
2022-09-05T00:43:51.548Z,5.00
2022-09-05T00:44:59.356Z,4.53
2022-09-05T00:46:09.173Z,5.00
2022-09-05T00:47:38.133Z,4.17
2022-09-05T00:49:02.842Z,4.17
2022-09-05T00:50:25.050Z,7.50
2022-09-05T00:51:35.548Z,5.43
2022-09-05T00:53:07.006Z,7.83
2022-09-05T00:54:41.304Z,5.63
2022-09-05T00:56:21.132Z,5.07
2022-09-05T00:58:00.369Z,6.27
2022-09-05T00:59:57.856Z,7.80
2022-09-05T01:01:10.742Z,4.80
2022-09-05T01:02:32.121Z,4.97
2022-09-05T01:03:56.527Z,5.80
2022-09-05T01:05:03.610Z,4.40
2022-09-05T01:06:26.027Z,3.77
2022-09-05T01:07:54.226Z,4.17
2022-09-05T01:09:07.882Z,4.43
2022-09-05T01:10:23.748Z,5.73
2022-09-05T01:11:35.668Z,5.73
2022-09-05T01:12:54.509Z,8.20
2022-09-05T01:14:25.089Z,4.17
2022-09-05T01:15:43.551Z,5.13
2022-09-05T01:17:20.055Z,4.43
2022-09-05T01:18:24.473Z,4.63
2022-09-05T01:20:18.933Z,4.03
2022-09-05T01:21:49.341Z,5.80
2022-09-05T01:23:18.373Z,4.63
2022-09-05T01:24:44.143Z,4.50
2022-09-05T01:26:03.708Z,4.93
2022-09-05T01:27:31.429Z,12.03
2022-09-05T01:29:17.701Z,6.57
2022-09-05T01:30:31.803Z,4.57
2022-09-05T01:31:59.040Z,4.63
2022-09-05T01:33:43.719Z,6.27
2022-09-05T01:35:01.221Z,7.10
2022-09-05T01:36:50.452Z,5.07
2022-09-05T01:38:21.160Z,5.60
2022-09-05T01:40:16.144Z,5.30
2022-09-05T01:41:18.647Z,6.70
2022-09-05T01:42:31.709Z,4.20
2022-09-05T01:44:01.609Z,6.73
2022-09-05T01:45:29.588Z,4.43
2022-09-05T01:47:01.969Z,4.43
2022-09-05T01:48:12.339Z,5.37
2022-09-05T01:49:55.902Z,5.40
2022-09-05T01:51:36.985Z,5.23
2022-09-05T01:53:07.743Z,4.90
2022-09-05T01:54:33.777Z,4.67
2022-09-05T01:56:10.071Z,6.30
2022-09-05T01:57:54.612Z,4.40
2022-09-05T01:59:36.993Z,5.13
2022-09-05T02:00:50.060Z,9.00
2022-09-05T02:02:09.639Z,7.10
2022-09-05T02:03:18.672Z,6.10
2022-09-05T02:04:36.948Z,8.10
2022-09-05T02:06:11.581Z,8.37
2022-09-05T02:07:31.514Z,10.73
2022-09-05T02:08:54.481Z,5.87
2022-09-05T02:10:12.701Z,10.43
2022-09-05T02:11:14.925Z,5.37
2022-09-05T02:12:30.839Z,9.77
2022-09-05T02:13:35.534Z,7.37
2022-09-05T02:15:07.541Z,6.50
2022-09-05T02:16:28.434Z,11.00
2022-09-05T02:17:51.832Z,6.33
2022-09-05T02:19:10.164Z,8.87
2022-09-05T02:20:26.607Z,4.67
2022-09-05T02:21:28.172Z,5.33
2022-09-05T02:22:42.890Z,5.90
2022-09-05T02:23:52.653Z,5.93
2022-09-05T02:25:30.552Z,11.47
2022-09-05T02:26:32.166Z,5.10
2022-09-05T02:28:11.278Z,5.30
2022-09-05T02:29:28.550Z,5.37
2022-09-05T02:30:51.708Z,4.67
2022-09-05T02:32:43.187Z,7.00
2022-09-05T02:34:08.627Z,5.00
2022-09-05T02:35:10.220Z,5.97
2022-09-05T02:36:28.586Z,5.23
2022-09-05T02:38:45.500Z,4.97
2022-09-05T02:45:00.521Z,8.50
2022-09-05T02:45:14.208Z,7.00
2022-09-05T02:45:15.329Z,9.40
2022-09-05T02:45:18.443Z,5.10
2022-09-05T02:45:26.984Z,7.60
2022-09-05T02:47:06.446Z,5.17
2022-09-05T02:48:21.790Z,5.03
2022-09-05T02:52:21.204Z,5.00
2022-09-05T02:57:28.482Z,5.30
2022-09-05T02:57:37.802Z,5.20
2022-09-05T02:57:42.127Z,7.07
2022-09-05T02:57:46.894Z,7.43
2022-09-05T02:58:07.675Z,5.17
2022-09-05T02:59:38.590Z,6.33
2022-09-05T03:00:51.860Z,6.93
2022-09-05T03:02:26.321Z,5.40
2022-09-05T03:03:40.019Z,5.30
2022-09-05T03:04:49.592Z,5.33
2022-09-05T03:05:59.275Z,4.97
2022-09-05T03:07:25.375Z,10.83
2022-09-05T03:09:08.044Z,5.47
2022-09-05T03:10:47.065Z,5.27
2022-09-05T03:12:29.215Z,5.70
2022-09-05T03:13:59.184Z,5.00
2022-09-05T03:15:23.620Z,5.40
2022-09-05T03:16:49.879Z,5.97
2022-09-05T03:18:19.940Z,5.17
2022-09-05T03:19:46.047Z,5.30
2022-09-05T03:21:09.245Z,6.20
2022-09-05T03:22:22.518Z,6.90
2022-09-05T03:23:43.075Z,5.60
2022-09-05T03:24:56.917Z,7.30
2022-09-05T03:26:27.712Z,5.50
2022-09-05T03:28:06.939Z,5.90
2022-09-05T03:29:11.420Z,6.30
2022-09-05T03:30:13.102Z,7.97
2022-09-05T03:31:35.654Z,6.37
2022-09-05T03:33:09.492Z,5.93
2022-09-05T03:35:03.124Z,5.40
2022-09-05T03:36:48.816Z,8.43
2022-09-05T03:38:11.706Z,6.13
2022-09-05T03:39:29.651Z,7.10
2022-09-05T03:41:09.982Z,9.27
2022-09-05T03:42:36.497Z,5.30
2022-09-05T03:43:49.441Z,5.07
2022-09-05T03:45:06.959Z,5.57
2022-09-05T03:46:29.162Z,6.00
2022-09-05T03:48:18.758Z,6.30
2022-09-05T03:57:04.378Z,6.60
2022-09-05T03:57:06.348Z,5.17
2022-09-05T03:57:13.118Z,7.03
2022-09-05T03:57:24.924Z,8.33
2022-09-05T03:57:27.284Z,5.90
2022-09-05T03:58:55.398Z,6.00
2022-09-05T04:00:09.453Z,8.47
2022-09-05T04:02:59.937Z,6.10
2022-09-05T04:08:10.906Z,12.93
2022-09-05T04:08:17.420Z,6.40
2022-09-05T04:08:19.425Z,10.60
2022-09-05T04:08:24.962Z,9.87
2022-09-05T04:09:50.450Z,7.70
2022-09-05T04:11:06.514Z,7.77
2022-09-05T04:12:19.016Z,6.13
2022-09-05T04:13:30.020Z,10.30
2022-09-05T04:15:09.614Z,8.80
2022-09-05T04:16:19.598Z,6.83
2022-09-05T04:17:36.621Z,7.13
2022-09-05T04:18:43.114Z,7.93
2022-09-05T04:19:52.140Z,7.80
2022-09-05T04:21:27.641Z,6.70
2022-09-05T04:22:35.350Z,6.57
2022-09-05T04:23:36.984Z,13.13
2022-09-05T04:24:48.742Z,21.73
2022-09-05T04:26:12.120Z,21.20
2022-09-05T04:27:34.460Z,14.87
2022-09-05T04:29:03.354Z,15.97
2022-09-05T04:30:38.040Z,18.70
2022-09-05T04:32:19.803Z,12.85
2022-09-05T04:33:53.304Z,8.77
2022-09-05T04:35:03.052Z,6.60
2022-09-05T04:36:37.130Z,7.97
2022-09-05T04:37:55.229Z,9.17
2022-09-05T04:39:10.484Z,9.20
2022-09-05T04:40:33.212Z,10.20
2022-09-05T04:41:42.337Z,10.07
2022-09-05T04:42:44.286Z,6.83
2022-09-05T04:43:55.275Z,14.53
2022-09-05T04:45:03.324Z,11.30
2022-09-05T04:46:09.142Z,9.40
2022-09-05T04:47:50.647Z,10.40
2022-09-05T04:49:12.976Z,7.30
2022-09-05T04:50:23.720Z,10.90
2022-09-05T04:51:53.468Z,7.00
2022-09-05T04:53:36.670Z,10.70
2022-09-05T04:54:55.466Z,10.43
2022-09-05T04:55:58.938Z,8.03
2022-09-05T04:57:23.998Z,7.90
2022-09-05T04:59:14.533Z,14.70
2022-09-05T05:04:49.421Z,8.53
2022-09-05T05:06:08.719Z,6.20
2022-09-05T05:06:09.940Z,10.50
2022-09-05T05:06:18.348Z,5.93
2022-09-05T05:06:37.874Z,7.33
2022-09-05T05:08:11.210Z,6.17
2022-09-05T05:09:24.313Z,6.63
2022-09-05T05:16:29.873Z,8.90
2022-09-05T05:17:53.971Z,7.43
2022-09-05T05:17:56.598Z,6.70
2022-09-05T05:18:06.550Z,8.93
2022-09-05T05:18:08.630Z,15.73
2022-09-05T05:19:33.520Z,10.13
2022-09-05T05:20:58.091Z,10.57
2022-09-05T05:22:03.279Z,12.10
2022-09-05T05:23:20.124Z,8.07
2022-09-05T05:24:27.359Z,9.30
2022-09-05T05:25:40.859Z,9.90
2022-09-05T05:27:07.617Z,13.07
2022-09-05T05:28:44.088Z,8.17
2022-09-05T05:29:57.168Z,7.23
2022-09-05T05:31:14.021Z,10.47
2022-09-05T05:32:28.186Z,7.33
2022-09-05T05:33:50.201Z,8.73
2022-09-05T05:34:59.141Z,7.60
2022-09-05T05:36:04.292Z,9.73
2022-09-05T05:37:43.707Z,7.50
2022-09-05T05:39:05.694Z,11.63
2022-09-05T05:40:16.839Z,9.03
2022-09-05T05:41:41.604Z,12.10
2022-09-05T05:42:44.592Z,8.60
2022-09-05T05:43:47.505Z,19.07
2022-09-05T05:44:55.665Z,7.10
2022-09-05T05:45:59.436Z,8.00
2022-09-05T05:47:06.452Z,8.23
2022-09-05T05:48:30.854Z,8.70
2022-09-05T05:49:58.772Z,8.10
2022-09-05T05:51:20.043Z,11.60
2022-09-05T05:52:54.991Z,9.63
2022-09-05T05:54:00.692Z,10.50
2022-09-05T05:55:52.329Z,9.73
2022-09-05T05:57:14.916Z,13.80
2022-09-05T05:58:46.097Z,10.80
2022-09-05T06:00:27.349Z,14.27
2022-09-05T06:01:50.756Z,8.33
2022-09-05T06:03:25.908Z,15.40
2022-09-05T06:04:45.358Z,9.80
2022-09-05T06:06:08.399Z,11.97
2022-09-05T06:07:21.895Z,8.83
2022-09-05T06:11:09.473Z,11.60
2022-09-05T06:14:56.593Z,8.77
2022-09-05T06:15:06.531Z,12.07
2022-09-05T06:15:09.293Z,15.20
2022-09-05T06:16:16.763Z,13.00
2022-09-05T06:17:42.048Z,11.27
2022-09-05T06:18:53.585Z,13.67
2022-09-05T06:22:07.728Z,8.07
2022-09-05T06:22:08.619Z,9.83
2022-09-05T06:23:39.163Z,12.57
2022-09-05T06:25:18.841Z,8.77
2022-09-05T06:26:26.262Z,7.57
2022-09-05T06:28:02.217Z,17.60
2022-09-05T06:30:07.088Z,10.97
2022-09-05T06:31:47.555Z,9.80
2022-09-05T06:33:25.230Z,14.13
2022-09-05T06:34:46.133Z,14.70
2022-09-05T06:36:20.365Z,10.13
2022-09-05T06:38:01.373Z,8.90
2022-09-05T06:39:09.946Z,12.60
2022-09-05T06:40:23.612Z,10.30
2022-09-05T06:41:48.648Z,10.07
2022-09-05T06:42:57.994Z,11.13
2022-09-05T06:44:15.129Z,8.83
2022-09-05T06:45:32.661Z,12.90
2022-09-05T06:46:55.444Z,11.17
2022-09-05T06:48:08.093Z,16.97
2022-09-05T06:49:33.388Z,25.60
2022-09-05T06:51:06.837Z,21.87
2022-09-05T06:52:28.758Z,22.20
2022-09-05T06:53:53.496Z,12.47
2022-09-05T06:55:28.969Z,11.83
2022-09-05T06:56:51.644Z,13.33
2022-09-05T06:58:21.448Z,14.97
2022-09-05T07:00:10.348Z,13.50
2022-09-05T07:01:59.806Z,9.43
2022-09-05T07:03:06.553Z,10.90
2022-09-05T07:05:37.203Z,7.90
2022-09-05T07:06:19.311Z,9.43
2022-09-05T07:07:28.745Z,12.53
2022-09-05T07:08:51.883Z,8.87
2022-09-05T07:10:34.739Z,12.10
2022-09-05T07:11:36.333Z,9.30
2022-09-05T07:12:52.629Z,9.80
2022-09-05T07:14:19.940Z,11.20
2022-09-05T07:15:33.385Z,16.40
2022-09-05T07:16:38.432Z,10.33
2022-09-05T07:18:09.569Z,12.20
2022-09-05T07:19:37.493Z,15.40
2022-09-05T07:21:17.282Z,13.70
2022-09-05T07:22:47.777Z,7.30
2022-09-05T07:24:11.140Z,14.00
2022-09-05T07:25:18.724Z,9.50
2022-09-05T07:26:51.954Z,11.10
2022-09-05T07:28:28.925Z,13.83
2022-09-05T07:29:29.570Z,11.03
2022-09-05T07:30:33.458Z,9.40
2022-09-05T07:31:38.409Z,11.13
2022-09-05T07:32:44.498Z,8.57
2022-09-05T07:33:48.156Z,8.13
2022-09-05T07:34:51.319Z,9.43
2022-09-05T07:35:55.523Z,12.47
2022-09-05T07:37:14.712Z,7.03
2022-09-05T07:38:23.168Z,12.20
2022-09-05T07:39:35.846Z,15.33
2022-09-05T07:40:42.699Z,9.03
2022-09-05T07:41:53.497Z,9.73
2022-09-05T07:43:10.033Z,14.03
2022-09-05T07:44:42.096Z,16.13
2022-09-05T07:46:02.819Z,11.67
2022-09-05T07:47:30.805Z,7.33
2022-09-05T07:48:37.007Z,13.67
2022-09-05T07:49:47.620Z,7.60
2022-09-05T07:56:46.070Z,8.20
2022-09-05T07:57:00.801Z,8.70
2022-09-05T07:57:01.958Z,6.43
2022-09-05T07:57:10.687Z,12.70
2022-09-05T07:58:41.338Z,13.57
2022-09-05T07:59:46.969Z,25.53
2022-09-05T08:00:54.672Z,6.00
2022-09-05T08:01:57.084Z,10.93
2022-09-05T08:03:08.271Z,6.40
2022-09-05T08:04:31.034Z,8.93
2022-09-05T08:05:40.391Z,8.00
2022-09-05T08:07:25.688Z,12.07
2022-09-05T08:08:13.384Z,11.13
2022-09-05T08:10:06.740Z,10.20
2022-09-05T08:11:25.702Z,8.43
2022-09-05T08:12:28.033Z,7.50
2022-09-05T08:13:49.555Z,13.13
2022-09-05T08:15:03.825Z,10.23
2022-09-05T08:16:13.180Z,6.50
2022-09-05T08:17:20.380Z,9.30
2022-09-05T08:18:42.847Z,10.47
2022-09-05T08:20:08.909Z,7.20
2022-09-05T08:21:25.935Z,10.73
2022-09-05T08:22:34.546Z,15.20
2022-09-05T08:23:47.780Z,12.83
2022-09-05T08:24:59.463Z,8.63
2022-09-05T08:26:13.842Z,10.03
2022-09-05T08:27:21.728Z,10.83
2022-09-05T08:28:40.864Z,5.80
2022-09-05T08:30:22.624Z,6.70
2022-09-05T08:31:25.509Z,6.53
2022-09-05T08:32:38.899Z,15.40
2022-09-05T08:33:41.290Z,8.07
2022-09-05T08:34:50.085Z,12.33
2022-09-05T08:36:00.943Z,7.30
2022-09-05T08:37:03.691Z,6.67
2022-09-05T08:38:08.090Z,11.37
2022-09-05T08:39:12.511Z,5.57
2022-09-05T08:40:27.873Z,6.37
2022-09-05T08:41:50.209Z,7.53
2022-09-05T08:45:50.670Z,8.90
2022-09-05T08:46:46.633Z,12.53
2022-09-05T08:46:49.598Z,5.90
2022-09-05T08:48:04.235Z,6.20
2022-09-05T08:49:43.999Z,5.90
2022-09-05T08:51:15.350Z,7.03
2022-09-05T08:52:46.461Z,5.13
2022-09-05T08:54:04.823Z,5.53
2022-09-05T08:55:33.820Z,6.27
2022-09-05T08:57:20.855Z,7.97
2022-09-05T08:58:43.400Z,10.50
2022-09-05T09:00:20.808Z,9.43
2022-09-05T09:02:11.633Z,10.23
2022-09-05T09:03:05.075Z,10.63
2022-09-05T09:04:54.064Z,8.60
2022-09-05T09:06:13.523Z,5.83
2022-09-05T09:07:47.722Z,11.53
2022-09-05T09:09:18.318Z,19.57
2022-09-05T09:10:34.822Z,7.20
2022-09-05T09:12:09.790Z,12.93
2022-09-05T09:13:52.374Z,9.53
2022-09-05T09:14:59.715Z,16.93
2022-09-05T09:16:30.472Z,7.03
2022-09-05T09:17:44.385Z,12.60
2022-09-05T09:18:49.069Z,7.50
2022-09-05T09:20:07.355Z,9.73
2022-09-05T09:21:31.155Z,4.10
2022-09-05T09:22:55.476Z,12.57
2022-09-05T09:24:17.673Z,5.80
2022-09-05T09:25:31.853Z,12.63
2022-09-05T09:26:42.801Z,10.97
2022-09-05T09:28:49.914Z,8.80
2022-09-05T09:30:01.354Z,11.97
2022-09-05T09:31:14.358Z,9.60
2022-09-05T09:32:21.595Z,9.27
2022-09-05T09:33:38.662Z,7.60
2022-09-05T09:35:11.741Z,6.83
2022-09-05T09:36:23.436Z,6.90
2022-09-05T09:38:06.988Z,4.97
2022-09-05T09:39:40.016Z,6.53
2022-09-05T09:41:13.471Z,5.17
2022-09-05T09:42:45.349Z,4.10
2022-09-05T09:44:05.732Z,6.13
2022-09-05T09:45:29.105Z,4.60
2022-09-05T09:46:44.078Z,6.30
2022-09-05T09:47:57.161Z,4.60
2022-09-05T09:49:22.772Z,9.43
2022-09-05T09:50:46.454Z,2.90
2022-09-05T09:52:34.153Z,4.70
2022-09-05T09:53:59.911Z,5.63
2022-09-05T09:55:52.600Z,5.93
2022-09-05T09:57:05.226Z,3.27
2022-09-05T09:58:43.688Z,5.50
2022-09-05T10:00:02.573Z,7.30
2022-09-05T10:01:36.668Z,2.47
2022-09-05T10:07:22.898Z,4.70
2022-09-05T10:10:38.156Z,2.30
2022-09-05T10:10:53.064Z,4.77
2022-09-05T10:10:56.164Z,3.40
2022-09-05T10:11:37.541Z,2.90
2022-09-05T10:12:23.701Z,2.60
2022-09-05T10:13:52.749Z,2.30
2022-09-05T10:15:31.495Z,12.03
2022-09-05T10:17:10.191Z,3.57
2022-09-05T10:18:24.012Z,5.80
2022-09-05T10:20:13.253Z,5.27
2022-09-05T10:21:25.559Z,2.80
2022-09-05T10:22:36.621Z,7.93
2022-09-05T10:24:11.140Z,7.20
2022-09-05T10:25:21.906Z,2.40
2022-09-05T10:26:58.862Z,1.73
2022-09-05T10:28:06.591Z,3.30
2022-09-05T10:29:30.222Z,2.10
2022-09-05T10:31:52.817Z,3.30
2022-09-05T10:35:04.457Z,2.70
2022-09-05T10:35:11.472Z,2.23
2022-09-05T10:35:50.812Z,2.63
2022-09-05T10:36:59.160Z,2.10
2022-09-05T10:38:10.238Z,3.43
2022-09-05T10:39:19.232Z,2.50
2022-09-05T10:40:25.609Z,3.13
2022-09-05T10:41:42.767Z,2.50
2022-09-05T10:43:00.450Z,2.13
2022-09-05T10:44:05.248Z,2.33
2022-09-05T10:45:16.325Z,2.20
2022-09-05T10:46:51.584Z,7.23
2022-09-05T10:48:14.122Z,2.40
2022-09-05T10:49:16.541Z,2.20
2022-09-05T10:50:36.027Z,4.67
2022-09-05T10:51:51.918Z,3.93
2022-09-05T10:53:15.271Z,4.50
2022-09-05T10:54:28.437Z,4.10
2022-09-05T10:55:54.852Z,1.77
2022-09-05T10:57:29.334Z,5.40
2022-09-05T11:02:16.194Z,3.03
2022-09-05T11:02:22.182Z,2.60
2022-09-05T11:02:29.327Z,1.83
2022-09-05T11:03:47.611Z,8.97
2022-09-05T11:05:15.350Z,4.80
2022-09-05T11:06:24.993Z,1.50
2022-09-05T11:07:39.820Z,7.83
2022-09-05T11:09:19.646Z,2.17
2022-09-05T11:10:37.806Z,6.10
2022-09-05T11:11:45.777Z,3.40
2022-09-05T11:13:06.261Z,4.63
2022-09-05T11:14:28.918Z,3.13
2022-09-05T11:15:36.266Z,4.13
2022-09-05T11:16:53.818Z,3.63
2022-09-05T11:18:09.259Z,3.77
2022-09-05T11:19:19.086Z,3.13
2022-09-05T11:20:45.814Z,2.67
2022-09-05T11:22:22.756Z,7.63
2022-09-05T11:23:35.861Z,2.93
2022-09-05T11:24:57.533Z,4.03
2022-09-05T11:26:05.996Z,3.47
2022-09-05T11:27:26.441Z,5.07
2022-09-05T11:28:57.628Z,5.10
2022-09-05T11:30:28.690Z,1.77
2022-09-05T11:32:43.519Z,3.40
2022-09-05T11:39:54.895Z,2.97
2022-09-05T11:40:05.248Z,1.53
2022-09-05T11:40:10.063Z,4.70
2022-09-05T11:40:10.151Z,2.50
2022-09-05T11:40:33.926Z,2.07
2022-09-05T11:41:54.499Z,3.13
2022-09-05T11:43:27.302Z,4.13
2022-09-05T11:45:00.701Z,2.83
2022-09-05T11:46:20.628Z,1.67
2022-09-05T11:47:59.382Z,2.10
2022-09-05T11:49:18.012Z,2.40
2022-09-05T11:50:58.009Z,2.00
2022-09-05T11:52:40.248Z,3.90
2022-09-05T11:54:34.106Z,5.50
2022-09-05T11:56:00.775Z,1.37
2022-09-05T11:57:32.573Z,1.30
2022-09-05T11:59:05.239Z,1.30
2022-09-05T12:00:34.823Z,1.37
2022-09-05T12:01:45.698Z,1.37
2022-09-05T12:03:57.389Z,4.80
2022-09-05T12:05:48.523Z,1.27
2022-09-05T12:06:57.198Z,1.20
2022-09-05T12:08:40.637Z,1.40
2022-09-05T12:10:47.225Z,2.00
2022-09-05T12:11:45.243Z,2.03
2022-09-05T12:13:17.060Z,1.93
2022-09-05T12:14:33.181Z,3.20
2022-09-05T12:15:37.521Z,1.27
2022-09-05T12:17:35.316Z,6.50
2022-09-05T12:18:51.733Z,1.10
2022-09-05T12:20:06.465Z,3.33
2022-09-05T12:21:38.284Z,3.40
2022-09-05T12:23:01.258Z,1.20
2022-09-05T12:25:17.204Z,3.27
2022-09-05T12:27:41.324Z,2.27
2022-09-05T12:27:44.556Z,1.40
2022-09-05T12:29:29.514Z,2.40
2022-09-05T12:30:36.357Z,6.83
2022-09-05T12:33:43.815Z,1.63
2022-09-05T12:36:04.193Z,1.60
2022-09-05T12:36:04.363Z,1.53
2022-09-05T12:40:05.112Z,3.13
2022-09-05T12:40:55.968Z,1.70
2022-09-05T12:41:32.478Z,3.53
2022-09-05T12:42:14.474Z,5.13
2022-09-05T12:44:40.226Z,1.33
2022-09-05T12:44:44.744Z,2.73
2022-09-05T12:45:58.597Z,2.80
2022-09-05T12:47:16.763Z,2.60
2022-09-05T12:48:57.300Z,1.33
2022-09-05T12:50:14.335Z,2.40
2022-09-05T12:51:45.031Z,2.17
2022-09-05T12:52:58.525Z,2.90
2022-09-05T12:54:09.425Z,2.60
2022-09-05T12:55:52.120Z,3.30
2022-09-05T13:01:08.112Z,1.63
2022-09-05T13:03:03.137Z,1.20
2022-09-05T13:03:06.942Z,4.63
2022-09-05T13:03:14.501Z,11.00
2022-09-05T13:03:35.534Z,2.90
2022-09-05T13:04:37.297Z,2.70
2022-09-05T13:05:59.054Z,1.70
2022-09-05T13:07:09.422Z,1.43
2022-09-05T13:08:21.419Z,2.70
2022-09-05T13:09:58.263Z,2.20
2022-09-05T13:14:49.894Z,1.47
2022-09-05T13:14:53.867Z,1.30
2022-09-05T13:14:57.342Z,3.47
2022-09-05T13:15:37.746Z,2.40
2022-09-05T13:16:46.327Z,1.67
2022-09-05T13:17:59.271Z,2.40
2022-09-05T13:19:08.603Z,3.47
2022-09-05T13:20:17.717Z,1.63
2022-09-05T13:21:23.822Z,1.37
2022-09-05T13:22:27.561Z,2.90
2022-09-05T13:23:44.837Z,2.20
2022-09-05T13:25:09.890Z,7.20
2022-09-05T13:26:40.029Z,3.07
2022-09-05T13:27:47.103Z,1.40
2022-09-05T13:29:03.957Z,1.70
2022-09-05T13:33:38.789Z,3.93
2022-09-05T13:37:55.630Z,1.90
2022-09-05T13:37:59.207Z,7.87
2022-09-05T13:38:00.765Z,3.30
2022-09-05T13:38:20.015Z,3.23
2022-09-05T13:38:37.802Z,1.53
2022-09-05T13:40:01.529Z,1.37
2022-09-05T13:41:04.299Z,1.53
2022-09-05T13:42:07.184Z,3.90
2022-09-05T13:43:12.232Z,2.60
2022-09-05T13:44:26.246Z,1.20
2022-09-05T13:45:31.925Z,1.60
2022-09-05T13:46:39.268Z,2.50
2022-09-05T13:47:56.008Z,1.40
2022-09-05T13:49:26.657Z,3.53
2022-09-05T13:50:37.284Z,1.90
2022-09-05T13:51:43.163Z,3.90
2022-09-05T13:52:51.546Z,1.70
2022-09-05T13:54:18.630Z,1.40
2022-09-05T13:55:38.227Z,1.70
2022-09-05T13:57:01.327Z,3.87
2022-09-05T13:58:09.343Z,1.90
2022-09-05T13:59:15.106Z,2.10
2022-09-05T14:00:40.446Z,3.10
2022-09-05T14:02:25.906Z,1.30
2022-09-05T14:03:54.560Z,2.93
2022-09-05T14:05:19.472Z,1.57
2022-09-05T14:07:44.047Z,6.90
2022-09-05T14:09:35.193Z,2.43
2022-09-05T14:10:22.159Z,7.40
2022-09-05T14:11:55.364Z,4.73
2022-09-05T14:13:06.583Z,1.70
2022-09-05T14:16:04.290Z,3.40
2022-09-05T14:17:51.123Z,3.77
2022-09-05T14:19:12.724Z,3.30
2022-09-05T14:20:34.610Z,7.87
2022-09-05T14:21:40.159Z,6.80
2022-09-05T14:22:47.552Z,1.30
2022-09-05T14:23:56.572Z,2.90
2022-09-05T14:25:00.246Z,7.47
2022-09-05T14:26:05.183Z,1.60
2022-09-05T14:27:14.381Z,2.63
2022-09-05T14:28:25.570Z,1.60
2022-09-05T14:29:39.106Z,1.30
2022-09-05T14:32:00.935Z,2.20
2022-09-05T14:37:34.937Z,1.53
2022-09-05T14:37:42.125Z,1.20
2022-09-05T14:37:54.223Z,1.27
2022-09-05T14:37:58.325Z,1.57
2022-09-05T14:38:49.011Z,1.50
2022-09-05T14:40:32.504Z,1.47
2022-09-05T14:42:11.142Z,2.70
2022-09-05T14:43:51.641Z,1.43
2022-09-05T14:45:02.886Z,1.43
2022-09-05T14:46:38.736Z,1.37
2022-09-05T14:47:47.555Z,2.43
2022-09-05T14:49:18.591Z,1.40
2022-09-05T14:50:39.771Z,2.90
2022-09-05T14:51:46.698Z,3.10
2022-09-05T14:56:46.429Z,3.33
2022-09-05T15:02:38.374Z,1.30
2022-09-05T15:02:41.674Z,1.50
2022-09-05T15:03:00.244Z,1.53
2022-09-05T15:03:00.829Z,3.20
2022-09-05T15:05:28.252Z,6.10
2022-09-05T15:06:33.069Z,1.60
2022-09-05T15:08:00.066Z,11.70
2022-09-05T15:12:14.058Z,3.23
2022-09-05T15:12:16.501Z,1.93
2022-09-05T15:12:31.270Z,2.17
2022-09-05T15:13:57.011Z,2.53
2022-09-05T15:15:22.852Z,7.03
2022-09-05T15:16:25.743Z,3.60
2022-09-05T15:17:30.124Z,1.43
2022-09-05T15:18:40.281Z,1.90
2022-09-05T15:20:05.742Z,4.30
2022-09-05T15:21:35.359Z,2.10
2022-09-05T15:22:41.842Z,1.60
2022-09-05T15:23:55.968Z,1.90
2022-09-05T15:25:25.475Z,1.27
2022-09-05T15:26:30.936Z,1.30
2022-09-05T15:27:33.254Z,2.27
2022-09-05T15:28:43.667Z,1.50
2022-09-05T15:29:54.622Z,3.73
2022-09-05T15:31:08.013Z,1.20
2022-09-05T15:32:26.397Z,1.97
2022-09-05T15:33:30.565Z,2.17
2022-09-05T15:34:32.872Z,1.80
2022-09-05T15:35:38.414Z,1.53
2022-09-05T15:36:42.797Z,2.07
2022-09-05T15:37:45.000Z,1.57
2022-09-05T15:38:55.718Z,2.00
2022-09-05T15:40:01.812Z,1.50
2022-09-05T15:41:10.012Z,1.80
2022-09-05T15:42:21.214Z,1.50
2022-09-05T15:43:24.433Z,1.57
2022-09-05T15:44:30.535Z,2.10
2022-09-05T15:45:35.894Z,1.27
2022-09-05T15:46:37.458Z,1.70
2022-09-05T15:47:47.256Z,5.03
2022-09-05T15:48:56.147Z,3.47
2022-09-05T15:50:00.770Z,2.60
2022-09-05T15:51:16.968Z,2.87
2022-09-05T15:52:18.524Z,4.30
2022-09-05T15:53:37.468Z,3.00
2022-09-05T15:54:49.531Z,2.60
2022-09-05T15:55:59.904Z,5.43
2022-09-05T15:57:05.961Z,1.90
2022-09-05T15:58:07.701Z,5.90
2022-09-05T15:59:10.378Z,1.40
2022-09-05T16:00:29.494Z,1.70
2022-09-05T16:01:58.604Z,2.13
2022-09-05T16:05:46.352Z,1.47
2022-09-05T16:08:23.715Z,1.30
2022-09-05T16:10:30.439Z,2.20
2022-09-05T16:10:36.099Z,4.27
2022-09-05T16:10:38.772Z,1.50
2022-09-05T16:10:45.159Z,1.37
2022-09-05T16:13:36.779Z,3.30
2022-09-05T16:15:43.165Z,2.67
2022-09-05T16:21:55.616Z,6.13
2022-09-05T16:23:14.768Z,2.87
2022-09-05T16:23:24.454Z,1.93
2022-09-05T16:23:24.779Z,1.90
2022-09-05T16:23:28.980Z,3.00
2022-09-05T16:24:28.545Z,2.30
2022-09-05T16:25:57.137Z,2.77
2022-09-05T16:27:03.596Z,6.93
2022-09-05T16:28:13.437Z,7.70
2022-09-05T16:29:26.803Z,5.97
2022-09-05T16:30:34.948Z,3.00
2022-09-05T16:31:42.971Z,2.17
2022-09-05T16:32:51.105Z,6.10
2022-09-05T16:33:54.015Z,4.60
2022-09-05T16:35:10.924Z,4.17
2022-09-05T16:36:40.729Z,4.83
2022-09-05T16:37:54.656Z,3.80
2022-09-05T16:39:15.354Z,3.13
2022-09-05T16:40:24.996Z,5.93
2022-09-05T16:41:45.810Z,6.80
2022-09-05T16:43:08.763Z,4.13
2022-09-05T16:44:31.169Z,3.57
2022-09-05T16:45:55.396Z,7.03
2022-09-05T16:47:25.470Z,3.00
2022-09-05T16:48:39.781Z,5.20
2022-09-05T16:49:57.388Z,5.00
2022-09-05T16:51:15.335Z,2.33
2022-09-05T16:52:20.484Z,4.40
2022-09-05T16:53:37.724Z,2.93
2022-09-05T16:54:49.703Z,2.53
2022-09-05T16:55:54.994Z,5.70
2022-09-05T16:57:06.751Z,3.07
2022-09-05T16:58:32.449Z,5.30
2022-09-05T16:59:37.013Z,3.70
2022-09-05T17:01:21.272Z,2.83
2022-09-05T17:02:36.780Z,3.07
2022-09-05T17:03:57.105Z,2.63
2022-09-05T17:05:28.046Z,4.93
2022-09-05T17:06:39.670Z,4.10
2022-09-05T17:08:01.027Z,10.33
2022-09-05T17:09:12.969Z,4.90
2022-09-05T17:10:19.071Z,5.23
2022-09-05T17:11:29.851Z,3.40
2022-09-05T17:12:37.632Z,3.27
2022-09-05T17:13:51.135Z,4.50
2022-09-05T17:15:00.672Z,9.97
2022-09-05T17:16:04.440Z,4.70
2022-09-05T17:18:22.412Z,4.77
2022-09-05T17:19:22.263Z,5.47
2022-09-05T17:20:28.683Z,13.17
2022-09-05T17:23:23.917Z,5.30
2022-09-05T17:27:25.916Z,10.20
2022-09-05T17:29:19.010Z,4.50
2022-09-05T17:29:32.593Z,3.10
2022-09-05T17:29:32.962Z,8.80
2022-09-05T17:29:38.203Z,7.03
2022-09-05T17:31:55.130Z,2.70
2022-09-05T17:32:57.954Z,6.20
2022-09-05T17:34:18.547Z,4.90
2022-09-05T17:35:42.160Z,4.00
2022-09-05T17:37:12.711Z,4.03
2022-09-05T17:38:32.429Z,4.20
2022-09-05T17:39:55.262Z,7.47
2022-09-05T17:41:08.546Z,3.20
2022-09-05T17:42:28.675Z,6.50
2022-09-05T17:43:35.647Z,8.40
2022-09-05T17:44:57.758Z,4.27
2022-09-05T17:46:23.472Z,3.87
2022-09-05T17:47:35.635Z,3.63
2022-09-05T17:49:10.133Z,5.50
2022-09-05T17:50:11.170Z,6.20
2022-09-05T17:51:34.372Z,6.20
2022-09-05T17:52:59.542Z,3.10
2022-09-05T17:54:05.157Z,9.20
2022-09-05T17:55:13.023Z,10.20
2022-09-05T17:56:48.388Z,3.80
2022-09-05T17:57:50.143Z,4.73
2022-09-05T17:59:28.237Z,4.13
2022-09-05T18:00:48.679Z,4.03
2022-09-05T18:02:19.816Z,5.83
2022-09-05T18:03:45.893Z,3.87
2022-09-05T18:04:52.325Z,7.20
2022-09-05T18:06:03.913Z,5.53
2022-09-05T18:07:26.834Z,4.90
2022-09-05T18:08:47.897Z,4.30
2022-09-05T18:10:15.395Z,5.53
2022-09-05T18:11:28.738Z,9.23
2022-09-05T18:14:38.059Z,4.10
2022-09-05T18:15:43.954Z,6.43
2022-09-05T18:17:37.665Z,11.50
2022-09-05T18:18:29.945Z,8.23
2022-09-05T18:19:57.597Z,8.83
2022-09-05T18:21:21.622Z,7.00
2022-09-05T18:22:30.166Z,5.77
2022-09-05T18:23:46.678Z,4.20
2022-09-05T18:25:28.943Z,5.30
2022-09-05T18:26:43.035Z,9.70
2022-09-05T18:28:19.594Z,3.90
2022-09-05T18:29:58.899Z,9.00
2022-09-05T18:30:53.966Z,7.77
2022-09-05T18:31:57.105Z,4.90
2022-09-05T18:33:53.873Z,10.50
2022-09-05T18:34:34.209Z,8.20